sensor_id;sensor_type;location;lat;lon;timestamp;temperature;humidity
55211;DHT22;41082;52.822;6.666;2022-09-01T00:01:05;15.50;99.90
55211;DHT22;41082;52.822;6.666;2022-09-01T00:03:35;15.50;99.90
55211;DHT22;41082;52.822;6.666;2022-09-01T00:06:02;15.50;99.90
55211;DHT22;41082;52.822;6.666;2022-09-01T00:08:28;15.40;99.90
55211;DHT22;41082;52.822;6.666;2022-09-01T00:10:54;15.40;99.90
55211;DHT22;41082;52.822;6.666;2022-09-01T00:13:19;15.40;99.90
55211;DHT22;41082;52.822;6.666;2022-09-01T00:15:45;15.30;99.90
55211;DHT22;41082;52.822;6.666;2022-09-01T00:18:11;15.30;99.90
55211;DHT22;41082;52.822;6.666;2022-09-01T00:20:37;15.30;99.90
55211;DHT22;41082;52.822;6.666;2022-09-01T00:23:03;15.30;99.90
55211;DHT22;41082;52.822;6.666;2022-09-01T00:25:29;15.20;99.90
55211;DHT22;41082;52.822;6.666;2022-09-01T00:27:54;15.20;99.90
55211;DHT22;41082;52.822;6.666;2022-09-01T00:30:25;15.20;99.90
55211;DHT22;41082;52.822;6.666;2022-09-01T00:32:51;15.20;99.90
55211;DHT22;41082;52.822;6.666;2022-09-01T00:35:18;15.20;99.90
55211;DHT22;41082;52.822;6.666;2022-09-01T00:37:44;15.20;99.90
55211;DHT22;41082;52.822;6.666;2022-09-01T00:40:11;15.10;99.90
55211;DHT22;41082;52.822;6.666;2022-09-01T00:42:38;15.10;99.90
55211;DHT22;41082;52.822;6.666;2022-09-01T00:45:05;15.10;99.90
55211;DHT22;41082;52.822;6.666;2022-09-01T00:47:30;15.10;99.90
55211;DHT22;41082;52.822;6.666;2022-09-01T00:49:57;15.00;99.90
55211;DHT22;41082;52.822;6.666;2022-09-01T00:52:33;15.00;99.90
55211;DHT22;41082;52.822;6.666;2022-09-01T00:55:11;15.00;99.90
55211;DHT22;41082;52.822;6.666;2022-09-01T00:57:37;14.90;99.90
55211;DHT22;41082;52.822;6.666;2022-09-01T01:00:12;14.90;99.90
55211;DHT22;41082;52.822;6.666;2022-09-01T01:02:40;14.90;99.90
55211;DHT22;41082;52.822;6.666;2022-09-01T01:05:06;14.90;99.90
55211;DHT22;41082;52.822;6.666;2022-09-01T01:07:33;14.80;99.90
55211;DHT22;41082;52.822;6.666;2022-09-01T01:10:04;14.80;99.90
55211;DHT22;41082;52.822;6.666;2022-09-01T01:12:32;14.80;99.90
55211;DHT22;41082;52.822;6.666;2022-09-01T01:15:03;14.70;99.90
55211;DHT22;41082;52.822;6.666;2022-09-01T01:17:31;14.70;99.90
55211;DHT22;41082;52.822;6.666;2022-09-01T01:19:57;14.70;99.90
55211;DHT22;41082;52.822;6.666;2022-09-01T01:25:31;14.60;99.90
55211;DHT22;41082;52.822;6.666;2022-09-01T01:28:25;14.60;99.90
55211;DHT22;41082;52.822;6.666;2022-09-01T01:31:01;14.50;99.90
55211;DHT22;41082;52.822;6.666;2022-09-01T01:33:40;14.50;99.90
55211;DHT22;41082;52.822;6.666;2022-09-01T01:36:36;14.50;99.90
55211;DHT22;41082;52.822;6.666;2022-09-01T01:39:10;14.50;99.90
55211;DHT22;41082;52.822;6.666;2022-09-01T01:41:40;14.40;99.90
55211;DHT22;41082;52.822;6.666;2022-09-01T01:44:09;14.40;99.90
55211;DHT22;41082;52.822;6.666;2022-09-01T01:46:40;14.40;99.90
55211;DHT22;41082;52.822;6.666;2022-09-01T01:49:08;14.40;99.90
55211;DHT22;41082;52.822;6.666;2022-09-01T01:51:34;14.30;99.90
55211;DHT22;41082;52.822;6.666;2022-09-01T01:54:00;14.30;99.90
55211;DHT22;41082;52.822;6.666;2022-09-01T01:56:30;14.30;99.90
55211;DHT22;41082;52.822;6.666;2022-09-01T01:58:58;14.20;99.90
55211;DHT22;41082;52.822;6.666;2022-09-01T02:01:25;14.20;99.90
55211;DHT22;41082;52.822;6.666;2022-09-01T02:03:56;14.10;99.90
55211;DHT22;41082;52.822;6.666;2022-09-01T02:06:23;14.10;99.90
55211;DHT22;41082;52.822;6.666;2022-09-01T02:08:51;14.10;99.90
55211;DHT22;41082;52.822;6.666;2022-09-01T02:11:17;14.10;99.90
55211;DHT22;41082;52.822;6.666;2022-09-01T02:13:43;14.10;99.90
55211;DHT22;41082;52.822;6.666;2022-09-01T02:16:10;14.10;99.90
55211;DHT22;41082;52.822;6.666;2022-09-01T02:18:42;14.10;99.90
55211;DHT22;41082;52.822;6.666;2022-09-01T02:21:14;14.10;99.90
55211;DHT22;41082;52.822;6.666;2022-09-01T02:23:48;14.00;99.90
55211;DHT22;41082;52.822;6.666;2022-09-01T02:26:14;14.00;99.90
55211;DHT22;41082;52.822;6.666;2022-09-01T02:28:41;14.00;99.90
55211;DHT22;41082;52.822;6.666;2022-09-01T02:31:09;14.00;99.90
55211;DHT22;41082;52.822;6.666;2022-09-01T02:33:36;13.90;99.90
55211;DHT22;41082;52.822;6.666;2022-09-01T02:36:08;13.90;99.90
55211;DHT22;41082;52.822;6.666;2022-09-01T02:38:35;13.90;99.90
55211;DHT22;41082;52.822;6.666;2022-09-01T02:41:02;13.90;99.90
55211;DHT22;41082;52.822;6.666;2022-09-01T02:43:28;13.80;99.90
55211;DHT22;41082;52.822;6.666;2022-09-01T02:45:58;13.80;99.90
55211;DHT22;41082;52.822;6.666;2022-09-01T02:48:30;13.80;99.90
55211;DHT22;41082;52.822;6.666;2022-09-01T02:51:05;13.80;99.90
55211;DHT22;41082;52.822;6.666;2022-09-01T02:53:31;13.70;99.90
55211;DHT22;41082;52.822;6.666;2022-09-01T02:55:59;13.70;99.90
55211;DHT22;41082;52.822;6.666;2022-09-01T02:58:27;13.70;99.90
55211;DHT22;41082;52.822;6.666;2022-09-01T03:00:55;13.70;99.90
55211;DHT22;41082;52.822;6.666;2022-09-01T03:03:21;13.70;99.90
55211;DHT22;41082;52.822;6.666;2022-09-01T03:05:50;13.70;99.90
55211;DHT22;41082;52.822;6.666;2022-09-01T03:08:20;13.60;99.90
55211;DHT22;41082;52.822;6.666;2022-09-01T03:10:46;13.60;99.90
55211;DHT22;41082;52.822;6.666;2022-09-01T03:13:18;13.60;99.90
55211;DHT22;41082;52.822;6.666;2022-09-01T03:15:45;13.60;99.90
55211;DHT22;41082;52.822;6.666;2022-09-01T03:18:12;13.60;99.90
55211;DHT22;41082;52.822;6.666;2022-09-01T03:20:40;13.60;99.90
55211;DHT22;41082;52.822;6.666;2022-09-01T03:23:08;13.50;99.90
55211;DHT22;41082;52.822;6.666;2022-09-01T03:25:35;13.50;99.90
55211;DHT22;41082;52.822;6.666;2022-09-01T03:28:02;13.50;99.90
55211;DHT22;41082;52.822;6.666;2022-09-01T03:30:29;13.50;99.90
55211;DHT22;41082;52.822;6.666;2022-09-01T03:32:56;13.50;99.90
55211;DHT22;41082;52.822;6.666;2022-09-01T03:35:23;13.50;99.90
55211;DHT22;41082;52.822;6.666;2022-09-01T03:37:50;13.50;99.90
55211;DHT22;41082;52.822;6.666;2022-09-01T03:40:17;13.50;99.90
55211;DHT22;41082;52.822;6.666;2022-09-01T03:42:43;13.50;99.90
55211;DHT22;41082;52.822;6.666;2022-09-01T03:45:10;13.50;99.90
55211;DHT22;41082;52.822;6.666;2022-09-01T03:47:39;13.50;99.90
55211;DHT22;41082;52.822;6.666;2022-09-01T03:50:14;13.50;99.90
55211;DHT22;41082;52.822;6.666;2022-09-01T03:52:54;13.50;99.90
55211;DHT22;41082;52.822;6.666;2022-09-01T03:55:23;13.50;99.90
55211;DHT22;41082;52.822;6.666;2022-09-01T03:58:00;13.50;99.90
55211;DHT22;41082;52.822;6.666;2022-09-01T04:00:28;13.50;99.90
55211;DHT22;41082;52.822;6.666;2022-09-01T04:02:57;13.50;99.90
55211;DHT22;41082;52.822;6.666;2022-09-01T04:05:23;13.50;99.90
55211;DHT22;41082;52.822;6.666;2022-09-01T04:07:56;13.50;99.90
55211;DHT22;41082;52.822;6.666;2022-09-01T04:10:22;13.50;99.90
55211;DHT22;41082;52.822;6.666;2022-09-01T04:12:48;13.50;99.90
55211;DHT22;41082;52.822;6.666;2022-09-01T04:15:16;13.50;99.90
55211;DHT22;41082;52.822;6.666;2022-09-01T04:17:45;13.50;99.90
55211;DHT22;41082;52.822;6.666;2022-09-01T04:20:36;13.50;99.90
55211;DHT22;41082;52.822;6.666;2022-09-01T04:23:14;13.50;99.90
55211;DHT22;41082;52.822;6.666;2022-09-01T04:25:47;13.50;99.90
55211;DHT22;41082;52.822;6.666;2022-09-01T04:28:16;13.50;99.90
55211;DHT22;41082;52.822;6.666;2022-09-01T04:30:57;13.50;99.90
55211;DHT22;41082;52.822;6.666;2022-09-01T04:33:27;13.50;99.90
55211;DHT22;41082;52.822;6.666;2022-09-01T04:35:59;13.50;99.90
55211;DHT22;41082;52.822;6.666;2022-09-01T04:38:25;13.50;99.90
55211;DHT22;41082;52.822;6.666;2022-09-01T04:40:53;13.50;99.90
55211;DHT22;41082;52.822;6.666;2022-09-01T04:43:22;13.50;99.90
55211;DHT22;41082;52.822;6.666;2022-09-01T04:45:49;13.50;99.90
55211;DHT22;41082;52.822;6.666;2022-09-01T04:48:21;13.50;99.90
55211;DHT22;41082;52.822;6.666;2022-09-01T04:50:48;13.50;99.90
55211;DHT22;41082;52.822;6.666;2022-09-01T04:53:15;13.50;99.90
55211;DHT22;41082;52.822;6.666;2022-09-01T04:55:42;13.50;99.90
55211;DHT22;41082;52.822;6.666;2022-09-01T04:58:14;13.50;99.90
55211;DHT22;41082;52.822;6.666;2022-09-01T05:00:42;13.50;99.90
55211;DHT22;41082;52.822;6.666;2022-09-01T05:03:10;13.50;99.90
55211;DHT22;41082;52.822;6.666;2022-09-01T05:05:41;13.50;99.90
55211;DHT22;41082;52.822;6.666;2022-09-01T05:08:19;13.50;99.90
55211;DHT22;41082;52.822;6.666;2022-09-01T05:10:47;13.50;99.90
55211;DHT22;41082;52.822;6.666;2022-09-01T05:13:16;13.50;99.90
55211;DHT22;41082;52.822;6.666;2022-09-01T05:15:44;13.50;99.90
55211;DHT22;41082;52.822;6.666;2022-09-01T05:18:17;13.50;99.90
55211;DHT22;41082;52.822;6.666;2022-09-01T05:20:49;13.50;99.90
55211;DHT22;41082;52.822;6.666;2022-09-01T05:23:18;13.50;99.90
55211;DHT22;41082;52.822;6.666;2022-09-01T05:25:47;13.50;99.90
55211;DHT22;41082;52.822;6.666;2022-09-01T05:28:17;13.50;99.90
55211;DHT22;41082;52.822;6.666;2022-09-01T05:30:45;13.50;99.90
55211;DHT22;41082;52.822;6.666;2022-09-01T05:33:12;13.50;99.90
55211;DHT22;41082;52.822;6.666;2022-09-01T05:35:42;13.50;99.90
55211;DHT22;41082;52.822;6.666;2022-09-01T05:38:17;13.50;99.90
55211;DHT22;41082;52.822;6.666;2022-09-01T05:40:43;13.50;99.90
55211;DHT22;41082;52.822;6.666;2022-09-01T05:43:10;13.60;99.90
55211;DHT22;41082;52.822;6.666;2022-09-01T05:45:41;13.60;99.90
55211;DHT22;41082;52.822;6.666;2022-09-01T05:48:09;13.60;99.90
55211;DHT22;41082;52.822;6.666;2022-09-01T05:50:38;13.60;99.90
55211;DHT22;41082;52.822;6.666;2022-09-01T05:53:08;13.60;99.90
55211;DHT22;41082;52.822;6.666;2022-09-01T05:55:40;13.60;99.90
55211;DHT22;41082;52.822;6.666;2022-09-01T05:58:08;13.60;99.90
55211;DHT22;41082;52.822;6.666;2022-09-01T06:00:41;13.70;99.90
55211;DHT22;41082;52.822;6.666;2022-09-01T06:03:09;13.80;99.90
55211;DHT22;41082;52.822;6.666;2022-09-01T06:05:35;13.90;99.90
55211;DHT22;41082;52.822;6.666;2022-09-01T06:08:06;14.00;99.90
55211;DHT22;41082;52.822;6.666;2022-09-01T06:10:33;14.10;99.90
55211;DHT22;41082;52.822;6.666;2022-09-01T06:13:02;14.20;99.90
55211;DHT22;41082;52.822;6.666;2022-09-01T06:15:31;14.30;99.90
55211;DHT22;41082;52.822;6.666;2022-09-01T06:17:57;14.40;99.90
55211;DHT22;41082;52.822;6.666;2022-09-01T06:20:23;14.50;99.90
55211;DHT22;41082;52.822;6.666;2022-09-01T06:22:49;14.60;99.90
55211;DHT22;41082;52.822;6.666;2022-09-01T06:25:20;14.70;99.90
55211;DHT22;41082;52.822;6.666;2022-09-01T06:27:46;14.80;99.90
55211;DHT22;41082;52.822;6.666;2022-09-01T06:30:14;14.80;99.90
55211;DHT22;41082;52.822;6.666;2022-09-01T06:32:42;14.90;99.90
55211;DHT22;41082;52.822;6.666;2022-09-01T06:35:13;15.00;99.90
55211;DHT22;41082;52.822;6.666;2022-09-01T06:37:41;15.10;99.90
55211;DHT22;41082;52.822;6.666;2022-09-01T06:40:12;15.10;99.90
55211;DHT22;41082;52.822;6.666;2022-09-01T06:42:47;15.20;99.90
55211;DHT22;41082;52.822;6.666;2022-09-01T06:45:18;15.30;99.90
55211;DHT22;41082;52.822;6.666;2022-09-01T06:47:45;15.30;99.90
55211;DHT22;41082;52.822;6.666;2022-09-01T06:50:13;15.30;99.90
55211;DHT22;41082;52.822;6.666;2022-09-01T06:52:41;15.40;99.90
55211;DHT22;41082;52.822;6.666;2022-09-01T06:55:11;15.50;99.90
55211;DHT22;41082;52.822;6.666;2022-09-01T06:57:41;15.50;99.90
55211;DHT22;41082;52.822;6.666;2022-09-01T07:00:14;15.50;99.90
55211;DHT22;41082;52.822;6.666;2022-09-01T07:02:46;15.60;99.90
55211;DHT22;41082;52.822;6.666;2022-09-01T07:05:14;15.70;99.90
55211;DHT22;41082;52.822;6.666;2022-09-01T07:07:53;15.60;99.90
55211;DHT22;41082;52.822;6.666;2022-09-01T07:10:24;15.70;99.90
55211;DHT22;41082;52.822;6.666;2022-09-01T07:12:52;15.70;99.90
55211;DHT22;41082;52.822;6.666;2022-09-01T07:15:23;15.80;99.90
55211;DHT22;41082;52.822;6.666;2022-09-01T07:17:51;15.80;99.90
55211;DHT22;41082;52.822;6.666;2022-09-01T07:20:21;15.80;99.90
55211;DHT22;41082;52.822;6.666;2022-09-01T07:22:48;15.90;99.90
55211;DHT22;41082;52.822;6.666;2022-09-01T07:25:14;15.90;99.90
55211;DHT22;41082;52.822;6.666;2022-09-01T07:27:41;15.90;99.90
55211;DHT22;41082;52.822;6.666;2022-09-01T07:30:14;16.00;99.90
55211;DHT22;41082;52.822;6.666;2022-09-01T07:32:40;16.00;99.90
55211;DHT22;41082;52.822;6.666;2022-09-01T07:35:12;16.10;99.90
55211;DHT22;41082;52.822;6.666;2022-09-01T07:37:38;16.10;99.90
55211;DHT22;41082;52.822;6.666;2022-09-01T07:40:08;16.20;99.90
55211;DHT22;41082;52.822;6.666;2022-09-01T07:42:34;16.20;99.90
55211;DHT22;41082;52.822;6.666;2022-09-01T07:45:00;16.30;99.90
55211;DHT22;41082;52.822;6.666;2022-09-01T07:47:31;16.30;99.90
55211;DHT22;41082;52.822;6.666;2022-09-01T07:50:03;16.40;99.90
55211;DHT22;41082;52.822;6.666;2022-09-01T07:52:36;16.40;99.90
55211;DHT22;41082;52.822;6.666;2022-09-01T07:57:36;16.60;99.90
55211;DHT22;41082;52.822;6.666;2022-09-01T08:00:06;16.70;99.90
55211;DHT22;41082;52.822;6.666;2022-09-01T08:02:32;16.70;99.90
55211;DHT22;41082;52.822;6.666;2022-09-01T08:04:58;16.80;99.90
55211;DHT22;41082;52.822;6.666;2022-09-01T08:07:24;16.90;99.90
55211;DHT22;41082;52.822;6.666;2022-09-01T08:09:50;16.90;99.90
55211;DHT22;41082;52.822;6.666;2022-09-01T08:12:16;17.00;99.90
55211;DHT22;41082;52.822;6.666;2022-09-01T08:14:41;17.10;99.90
55211;DHT22;41082;52.822;6.666;2022-09-01T08:17:07;17.10;99.90
55211;DHT22;41082;52.822;6.666;2022-09-01T08:19:33;17.20;99.90
55211;DHT22;41082;52.822;6.666;2022-09-01T08:22:00;17.30;99.90
55211;DHT22;41082;52.822;6.666;2022-09-01T08:24:25;17.30;99.90
55211;DHT22;41082;52.822;6.666;2022-09-01T08:26:51;17.40;99.90
55211;DHT22;41082;52.822;6.666;2022-09-01T08:29:17;17.50;99.90
55211;DHT22;41082;52.822;6.666;2022-09-01T08:31:42;17.60;99.90
55211;DHT22;41082;52.822;6.666;2022-09-01T08:34:08;17.70;99.90
55211;DHT22;41082;52.822;6.666;2022-09-01T08:36:37;17.80;99.90
55211;DHT22;41082;52.822;6.666;2022-09-01T08:39:03;17.90;99.90
55211;DHT22;41082;52.822;6.666;2022-09-01T08:42:03;18.00;99.90
55211;DHT22;41082;52.822;6.666;2022-09-01T08:47:11;18.20;99.90
55211;DHT22;41082;52.822;6.666;2022-09-01T08:49:39;18.30;99.90
55211;DHT22;41082;52.822;6.666;2022-09-01T08:52:37;18.40;99.90
55211;DHT22;41082;52.822;6.666;2022-09-01T08:57:37;18.60;99.70
55211;DHT22;41082;52.822;6.666;2022-09-01T09:00:10;18.70;99.30
55211;DHT22;41082;52.822;6.666;2022-09-01T09:08:24;19.00;98.30
55211;DHT22;41082;52.822;6.666;2022-09-01T09:16:49;19.40;97.30
55211;DHT22;41082;52.822;6.666;2022-09-01T09:21:50;19.70;97.20
55211;DHT22;41082;52.822;6.666;2022-09-01T09:29:41;20.20;96.20
55211;DHT22;41082;52.822;6.666;2022-09-01T09:32:08;20.30;95.40
55211;DHT22;41082;52.822;6.666;2022-09-01T09:34:37;20.50;94.90
55211;DHT22;41082;52.822;6.666;2022-09-01T09:37:20;20.60;94.40
55211;DHT22;41082;52.822;6.666;2022-09-01T09:40:06;20.70;93.70
55211;DHT22;41082;52.822;6.666;2022-09-01T09:42:40;20.90;92.60
55211;DHT22;41082;52.822;6.666;2022-09-01T09:45:25;21.00;92.40
55211;DHT22;41082;52.822;6.666;2022-09-01T09:47:53;21.20;92.30
55211;DHT22;41082;52.822;6.666;2022-09-01T09:50:27;21.30;91.70
55211;DHT22;41082;52.822;6.666;2022-09-01T09:58:21;21.70;90.40
55211;DHT22;41082;52.822;6.666;2022-09-01T10:01:04;21.90;90.10
55211;DHT22;41082;52.822;6.666;2022-09-01T10:03:43;22.00;87.80
55211;DHT22;41082;52.822;6.666;2022-09-01T10:06:11;22.00;86.70
55211;DHT22;41082;52.822;6.666;2022-09-01T10:11:11;22.10;86.40
55211;DHT22;41082;52.822;6.666;2022-09-01T10:13:51;22.20;85.90
55211;DHT22;41082;52.822;6.666;2022-09-01T10:16:37;22.30;84.90
55211;DHT22;41082;52.822;6.666;2022-09-01T10:19:04;22.40;83.50
55211;DHT22;41082;52.822;6.666;2022-09-01T10:21:37;22.60;81.80
55211;DHT22;41082;52.822;6.666;2022-09-01T10:24:43;22.80;80.10
55211;DHT22;41082;52.822;6.666;2022-09-01T10:27:07;22.90;78.60
55211;DHT22;41082;52.822;6.666;2022-09-01T10:29:40;23.10;78.40
55211;DHT22;41082;52.822;6.666;2022-09-01T10:32:13;23.20;75.10
55211;DHT22;41082;52.822;6.666;2022-09-01T10:34:41;23.20;72.10
55211;DHT22;41082;52.822;6.666;2022-09-01T10:37:07;23.20;71.80
55211;DHT22;41082;52.822;6.666;2022-09-01T10:39:33;23.40;71.10
55211;DHT22;41082;52.822;6.666;2022-09-01T10:42:00;23.50;71.10
55211;DHT22;41082;52.822;6.666;2022-09-01T10:44:37;23.60;72.00
55211;DHT22;41082;52.822;6.666;2022-09-01T10:47:31;23.70;69.60
55211;DHT22;41082;52.822;6.666;2022-09-01T10:50:02;23.80;71.50
55211;DHT22;41082;52.822;6.666;2022-09-01T10:55:30;24.30;68.50
55211;DHT22;41082;52.822;6.666;2022-09-01T10:58:20;24.50;66.70
55211;DHT22;41082;52.822;6.666;2022-09-01T11:00:49;24.60;65.20
55211;DHT22;41082;52.822;6.666;2022-09-01T11:06:06;24.50;66.00
55211;DHT22;41082;52.822;6.666;2022-09-01T11:16:38;24.70;63.90
55211;DHT22;41082;52.822;6.666;2022-09-01T11:27:05;24.40;62.60
55211;DHT22;41082;52.822;6.666;2022-09-01T11:29:53;24.40;62.20
55211;DHT22;41082;52.822;6.666;2022-09-01T11:32:23;24.20;61.80
55211;DHT22;41082;52.822;6.666;2022-09-01T11:34:50;24.10;61.60
55211;DHT22;41082;52.822;6.666;2022-09-01T11:37:20;24.10;61.30
55211;DHT22;41082;52.822;6.666;2022-09-01T11:39:54;24.10;60.90
55211;DHT22;41082;52.822;6.666;2022-09-01T11:42:26;24.20;60.90
55211;DHT22;41082;52.822;6.666;2022-09-01T11:45:04;24.30;60.90
55211;DHT22;41082;52.822;6.666;2022-09-01T11:47:42;24.30;60.40
55211;DHT22;41082;52.822;6.666;2022-09-01T11:52:41;24.70;60.10
55211;DHT22;41082;52.822;6.666;2022-09-01T11:55:08;24.80;59.60
55211;DHT22;41082;52.822;6.666;2022-09-01T11:57:39;24.80;58.60
55211;DHT22;41082;52.822;6.666;2022-09-01T12:00:10;24.80;59.30
55211;DHT22;41082;52.822;6.666;2022-09-01T12:02:50;24.80;58.40
55211;DHT22;41082;52.822;6.666;2022-09-01T12:05:34;24.80;57.80
55211;DHT22;41082;52.822;6.666;2022-09-01T12:08:03;24.80;59.00
55211;DHT22;41082;52.822;6.666;2022-09-01T12:10:33;24.80;57.70
55211;DHT22;41082;52.822;6.666;2022-09-01T12:13:09;24.90;58.40
55211;DHT22;41082;52.822;6.666;2022-09-01T12:15:39;24.80;57.70
55211;DHT22;41082;52.822;6.666;2022-09-01T12:18:21;24.80;56.60
55211;DHT22;41082;52.822;6.666;2022-09-01T12:20:50;24.70;56.60
55211;DHT22;41082;52.822;6.666;2022-09-01T12:23:28;24.70;57.00
55211;DHT22;41082;52.822;6.666;2022-09-01T12:26:01;24.70;57.70
55211;DHT22;41082;52.822;6.666;2022-09-01T12:28:30;24.70;57.60
55211;DHT22;41082;52.822;6.666;2022-09-01T12:30:58;24.60;57.00
55211;DHT22;41082;52.822;6.666;2022-09-01T12:33:25;24.60;56.80
55211;DHT22;41082;52.822;6.666;2022-09-01T12:35:51;24.60;56.60
55211;DHT22;41082;52.822;6.666;2022-09-01T12:38:24;24.60;56.80
55211;DHT22;41082;52.822;6.666;2022-09-01T12:40:55;24.50;57.30
55211;DHT22;41082;52.822;6.666;2022-09-01T12:43:31;24.50;57.20
55211;DHT22;41082;52.822;6.666;2022-09-01T12:45:57;24.40;57.30
55211;DHT22;41082;52.822;6.666;2022-09-01T12:48:37;24.40;56.80
55211;DHT22;41082;52.822;6.666;2022-09-01T12:51:17;24.40;55.70
55211;DHT22;41082;52.822;6.666;2022-09-01T12:53:59;24.40;57.30
55211;DHT22;41082;52.822;6.666;2022-09-01T12:59:20;24.30;56.50
55211;DHT22;41082;52.822;6.666;2022-09-01T13:01:47;24.30;57.10
55211;DHT22;41082;52.822;6.666;2022-09-01T13:04:33;24.30;56.70
55211;DHT22;41082;52.822;6.666;2022-09-01T13:07:05;24.40;55.90
55211;DHT22;41082;52.822;6.666;2022-09-01T13:09:32;24.50;54.40
55211;DHT22;41082;52.822;6.666;2022-09-01T13:12:18;24.50;55.10
55211;DHT22;41082;52.822;6.666;2022-09-01T13:14:44;24.50;54.50
55211;DHT22;41082;52.822;6.666;2022-09-01T13:17:10;24.40;55.00
55211;DHT22;41082;52.822;6.666;2022-09-01T13:19:37;24.30;55.20
55211;DHT22;41082;52.822;6.666;2022-09-01T13:22:03;24.20;55.10
55211;DHT22;41082;52.822;6.666;2022-09-01T13:24:29;24.10;55.20
55211;DHT22;41082;52.822;6.666;2022-09-01T13:26:55;24.10;55.40
55211;DHT22;41082;52.822;6.666;2022-09-01T13:29:22;24.00;54.70
55211;DHT22;41082;52.822;6.666;2022-09-01T13:31:48;24.00;54.70
55211;DHT22;41082;52.822;6.666;2022-09-01T13:34:14;24.10;54.70
55211;DHT22;41082;52.822;6.666;2022-09-01T13:36:40;24.20;54.20
55211;DHT22;41082;52.822;6.666;2022-09-01T13:39:05;24.40;54.10
55211;DHT22;41082;52.822;6.666;2022-09-01T13:41:31;24.60;53.30
55211;DHT22;41082;52.822;6.666;2022-09-01T13:43:57;24.70;53.50
55211;DHT22;41082;52.822;6.666;2022-09-01T13:46:22;24.80;54.10
55211;DHT22;41082;52.822;6.666;2022-09-01T13:48:48;24.90;53.60
55211;DHT22;41082;52.822;6.666;2022-09-01T13:51:24;24.90;53.50
55211;DHT22;41082;52.822;6.666;2022-09-01T13:53:51;24.90;52.30
55211;DHT22;41082;52.822;6.666;2022-09-01T13:56:16;24.90;52.50
55211;DHT22;41082;52.822;6.666;2022-09-01T13:58:42;25.00;52.10
55211;DHT22;41082;52.822;6.666;2022-09-01T14:01:08;25.10;53.10
55211;DHT22;41082;52.822;6.666;2022-09-01T14:03:33;25.20;53.00
55211;DHT22;41082;52.822;6.666;2022-09-01T14:05:59;25.30;52.00
55211;DHT22;41082;52.822;6.666;2022-09-01T14:08:25;25.30;50.80
55211;DHT22;41082;52.822;6.666;2022-09-01T14:10:52;25.40;50.80
55211;DHT22;41082;52.822;6.666;2022-09-01T14:13:19;25.40;50.10
55211;DHT22;41082;52.822;6.666;2022-09-01T14:15:46;25.50;49.60
55211;DHT22;41082;52.822;6.666;2022-09-01T14:18:13;25.50;49.40
55211;DHT22;41082;52.822;6.666;2022-09-01T14:20:43;25.40;49.80
55211;DHT22;41082;52.822;6.666;2022-09-01T14:23:09;25.40;50.50
55211;DHT22;41082;52.822;6.666;2022-09-01T14:25:36;25.30;50.40
55211;DHT22;41082;52.822;6.666;2022-09-01T14:28:02;25.30;51.20
55211;DHT22;41082;52.822;6.666;2022-09-01T14:30:30;25.30;51.50
55211;DHT22;41082;52.822;6.666;2022-09-01T14:32:57;25.30;51.00
55211;DHT22;41082;52.822;6.666;2022-09-01T14:35:24;25.30;50.60
55211;DHT22;41082;52.822;6.666;2022-09-01T14:37:51;25.30;49.60
55211;DHT22;41082;52.822;6.666;2022-09-01T14:40:18;25.30;49.30
55211;DHT22;41082;52.822;6.666;2022-09-01T14:42:47;25.30;49.70
55211;DHT22;41082;52.822;6.666;2022-09-01T14:45:15;25.30;50.00
55211;DHT22;41082;52.822;6.666;2022-09-01T14:47:43;25.20;49.80
55211;DHT22;41082;52.822;6.666;2022-09-01T14:50:10;25.00;50.00
55211;DHT22;41082;52.822;6.666;2022-09-01T14:52:36;24.90;48.80
55211;DHT22;41082;52.822;6.666;2022-09-01T14:55:03;24.80;49.50
55211;DHT22;41082;52.822;6.666;2022-09-01T14:57:29;24.80;50.00
55211;DHT22;41082;52.822;6.666;2022-09-01T14:59:55;24.70;49.70
55211;DHT22;41082;52.822;6.666;2022-09-01T15:02:20;24.70;49.70
55211;DHT22;41082;52.822;6.666;2022-09-01T15:04:46;24.70;49.10
55211;DHT22;41082;52.822;6.666;2022-09-01T15:07:12;24.70;50.10
55211;DHT22;41082;52.822;6.666;2022-09-01T15:09:37;24.80;50.80
55211;DHT22;41082;52.822;6.666;2022-09-01T15:12:03;24.80;49.40
55211;DHT22;41082;52.822;6.666;2022-09-01T15:14:31;24.80;49.00
55211;DHT22;41082;52.822;6.666;2022-09-01T15:16:56;24.80;49.60
55211;DHT22;41082;52.822;6.666;2022-09-01T15:19:22;24.80;48.90
55211;DHT22;41082;52.822;6.666;2022-09-01T15:21:49;24.80;49.80
55211;DHT22;41082;52.822;6.666;2022-09-01T15:24:14;24.80;50.20
55211;DHT22;41082;52.822;6.666;2022-09-01T15:26:40;24.80;49.60
55211;DHT22;41082;52.822;6.666;2022-09-01T15:29:06;24.70;49.50
55211;DHT22;41082;52.822;6.666;2022-09-01T15:31:34;24.70;49.70
55211;DHT22;41082;52.822;6.666;2022-09-01T15:34:02;24.60;49.30
55211;DHT22;41082;52.822;6.666;2022-09-01T15:36:29;24.40;49.30
55211;DHT22;41082;52.822;6.666;2022-09-01T15:38:55;24.40;49.30
55211;DHT22;41082;52.822;6.666;2022-09-01T15:41:26;24.30;49.50
55211;DHT22;41082;52.822;6.666;2022-09-01T15:43:53;24.20;49.50
55211;DHT22;41082;52.822;6.666;2022-09-01T15:46:19;24.10;49.90
55211;DHT22;41082;52.822;6.666;2022-09-01T15:48:45;24.00;50.10
55211;DHT22;41082;52.822;6.666;2022-09-01T15:53:49;23.80;49.80
55211;DHT22;41082;52.822;6.666;2022-09-01T15:56:16;23.70;49.90
55211;DHT22;41082;52.822;6.666;2022-09-01T15:58:46;23.60;50.00
55211;DHT22;41082;52.822;6.666;2022-09-01T16:01:12;23.50;49.80
55211;DHT22;41082;52.822;6.666;2022-09-01T16:03:38;23.40;49.50
55211;DHT22;41082;52.822;6.666;2022-09-01T16:06:03;23.30;49.80
55211;DHT22;41082;52.822;6.666;2022-09-01T16:08:29;23.30;50.20
55211;DHT22;41082;52.822;6.666;2022-09-01T16:10:55;23.20;50.80
55211;DHT22;41082;52.822;6.666;2022-09-01T16:13:21;23.10;50.40
55211;DHT22;41082;52.822;6.666;2022-09-01T16:19:15;22.90;49.70
55211;DHT22;41082;52.822;6.666;2022-09-01T16:21:59;22.90;49.30
55211;DHT22;41082;52.822;6.666;2022-09-01T16:24:25;22.80;48.80
55211;DHT22;41082;52.822;6.666;2022-09-01T16:26:51;22.70;49.70
55211;DHT22;41082;52.822;6.666;2022-09-01T16:29:41;22.70;50.20
55211;DHT22;41082;52.822;6.666;2022-09-01T16:32:08;22.60;50.10
55211;DHT22;41082;52.822;6.666;2022-09-01T16:34:35;22.60;50.60
55211;DHT22;41082;52.822;6.666;2022-09-01T16:37:05;22.50;50.80
55211;DHT22;41082;52.822;6.666;2022-09-01T16:39:42;22.40;50.50
55211;DHT22;41082;52.822;6.666;2022-09-01T16:47:35;22.20;51.00
55211;DHT22;41082;52.822;6.666;2022-09-01T16:50:26;22.20;50.90
55211;DHT22;41082;52.822;6.666;2022-09-01T16:53:01;22.10;50.50
55211;DHT22;41082;52.822;6.666;2022-09-01T16:55:39;22.00;50.30
55211;DHT22;41082;52.822;6.666;2022-09-01T17:03:47;21.80;51.20
55211;DHT22;41082;52.822;6.666;2022-09-01T17:06:28;21.80;51.40
55211;DHT22;41082;52.822;6.666;2022-09-01T17:09:10;21.80;52.20